createdAt,value
2018-06-15T00:01:43.078Z,99.83
2018-06-15T00:04:10.034Z,99.23
2018-06-15T00:06:36.978Z,100.00
2018-06-15T00:09:06.316Z,99.99
2018-06-15T00:11:33.286Z,100.00
2018-06-15T00:14:00.230Z,100.00
2018-06-15T00:16:27.185Z,100.00
2018-06-15T00:18:54.118Z,100.00
2018-06-15T00:21:21.068Z,100.00
2018-06-15T00:23:48.004Z,100.00
2018-06-15T00:26:14.946Z,100.00
2018-06-15T00:28:41.898Z,100.00
2018-06-15T00:31:08.833Z,100.00
2018-06-15T00:33:35.782Z,100.00
2018-06-15T00:36:02.763Z,99.70
2018-06-15T00:38:29.734Z,100.00
2018-06-15T00:40:56.665Z,100.00
2018-06-15T00:43:23.629Z,100.00
2018-06-15T00:45:50.570Z,100.00
2018-06-15T00:48:17.531Z,100.00
2018-06-15T00:50:44.462Z,100.00
2018-06-15T00:53:11.411Z,100.00
2018-06-15T00:55:38.358Z,100.00
2018-06-15T00:58:05.323Z,100.00
2018-06-15T01:00:32.265Z,100.00
2018-06-15T01:02:59.213Z,100.00
2018-06-15T01:05:26.161Z,100.00
2018-06-15T01:07:53.226Z,100.00
2018-06-15T01:10:20.181Z,100.00
2018-06-15T01:12:47.130Z,100.00
2018-06-15T01:15:14.073Z,100.00
2018-06-15T01:17:41.023Z,100.00
2018-06-15T01:20:07.969Z,100.00
2018-06-15T01:22:34.926Z,100.00
2018-06-15T01:25:01.885Z,100.00
2018-06-15T01:27:28.849Z,100.00
2018-06-15T01:29:55.789Z,100.00
2018-06-15T01:32:22.781Z,100.00
2018-06-15T01:34:49.705Z,100.00
2018-06-15T01:37:16.641Z,100.00
2018-06-15T01:39:43.626Z,100.00
2018-06-15T01:42:10.549Z,100.00
2018-06-15T01:44:37.502Z,100.00
2018-06-15T01:47:04.436Z,100.00
2018-06-15T01:49:31.386Z,100.00
2018-06-15T01:51:58.315Z,100.00
2018-06-15T01:54:25.257Z,100.00
2018-06-15T01:56:52.178Z,100.00
2018-06-15T01:59:19.110Z,100.00
2018-06-15T02:01:46.042Z,100.00
2018-06-15T02:04:19.921Z,100.00
2018-06-15T02:06:46.854Z,100.00
2018-06-15T02:09:13.801Z,100.00
2018-06-15T02:11:40.741Z,100.00
2018-06-15T02:14:07.663Z,100.00
2018-06-15T02:16:34.596Z,100.00
2018-06-15T02:19:01.620Z,100.00
2018-06-15T02:21:28.536Z,100.00
2018-06-15T02:23:55.462Z,100.00
2018-06-15T02:26:22.417Z,100.00
2018-06-15T02:28:49.366Z,100.00
2018-06-15T02:31:16.877Z,100.00
2018-06-15T02:33:43.824Z,99.74
2018-06-15T02:36:10.753Z,100.00
2018-06-15T02:38:37.686Z,100.00
2018-06-15T02:41:04.715Z,99.93
2018-06-15T02:43:31.654Z,99.78
2018-06-15T02:45:58.587Z,100.00
2018-06-15T02:48:25.533Z,100.00
2018-06-15T02:50:52.478Z,99.84
2018-06-15T02:53:19.430Z,99.75
2018-06-15T02:55:46.404Z,99.81
2018-06-15T02:58:13.333Z,99.53
2018-06-15T03:00:40.288Z,99.47
2018-06-15T03:03:07.233Z,99.00
2018-06-15T03:05:34.325Z,99.40
2018-06-15T03:08:01.274Z,98.99
2018-06-15T03:10:28.234Z,98.85
2018-06-15T03:12:55.171Z,99.31
2018-06-15T03:15:22.158Z,98.94
2018-06-15T03:17:49.102Z,99.58
2018-06-15T03:20:16.073Z,99.89
2018-06-15T03:22:43.006Z,99.39
2018-06-15T03:25:09.979Z,99.70
2018-06-15T03:27:36.889Z,99.63
2018-06-15T03:30:04.234Z,100.00
2018-06-15T03:32:31.157Z,99.07
2018-06-15T03:34:58.093Z,99.29
2018-06-15T03:37:25.026Z,98.88
2018-06-15T03:39:51.973Z,99.42
2018-06-15T03:42:18.917Z,98.86
2018-06-15T03:44:45.849Z,98.84
2018-06-15T03:47:12.776Z,99.37
2018-06-15T03:49:39.718Z,99.15
2018-06-15T03:52:06.641Z,99.17
2018-06-15T03:54:33.569Z,99.53
2018-06-15T03:57:00.497Z,99.74
2018-06-15T03:59:27.446Z,99.71
2018-06-15T04:01:54.384Z,99.46
2018-06-15T04:04:21.304Z,99.76
2018-06-15T04:06:48.260Z,99.28
2018-06-15T04:09:15.208Z,99.74
2018-06-15T04:11:42.186Z,99.43
2018-06-15T04:14:09.132Z,99.16
2018-06-15T04:16:36.083Z,99.69
2018-06-15T04:19:03.032Z,100.00
2018-06-15T04:21:29.967Z,100.00
2018-06-15T04:23:56.958Z,100.00
2018-06-15T04:26:23.879Z,100.00
2018-06-15T04:28:50.801Z,100.00
2018-06-15T04:31:17.738Z,100.00
2018-06-15T04:33:44.665Z,100.00
2018-06-15T04:36:11.585Z,100.00
2018-06-15T04:38:38.501Z,100.00
2018-06-15T04:41:05.633Z,100.00
2018-06-15T04:43:32.545Z,100.00
2018-06-15T04:45:59.461Z,100.00
2018-06-15T04:48:26.369Z,100.00
2018-06-15T04:50:53.321Z,100.00
2018-06-15T04:53:20.244Z,100.00
2018-06-15T04:55:47.177Z,100.00
2018-06-15T04:58:14.072Z,100.00
2018-06-15T05:00:41.016Z,100.00
2018-06-15T05:03:10.623Z,100.00
2018-06-15T05:05:37.534Z,100.00
2018-06-15T05:08:04.450Z,99.43
2018-06-15T05:10:31.363Z,98.71
2018-06-15T05:12:58.273Z,98.57
2018-06-15T05:15:25.195Z,98.87
2018-06-15T05:17:52.097Z,99.14
2018-06-15T05:20:19.012Z,98.38
2018-06-15T05:22:45.923Z,96.65
2018-06-15T05:25:12.897Z,96.72
2018-06-15T05:27:39.816Z,94.66
2018-06-15T05:30:06.764Z,95.89
2018-06-15T05:32:33.681Z,95.38
2018-06-15T05:35:00.622Z,94.23
2018-06-15T05:37:27.784Z,94.73
2018-06-15T05:39:54.738Z,90.55
2018-06-15T05:42:21.693Z,91.17
2018-06-15T05:44:48.609Z,91.79
2018-06-15T05:47:15.560Z,92.34
2018-06-15T05:49:42.485Z,90.14
2018-06-15T05:52:09.430Z,86.86
2018-06-15T05:54:36.364Z,83.86
2018-06-15T05:57:03.359Z,86.65
2018-06-15T05:59:30.288Z,82.54
2018-06-15T06:01:57.234Z,79.98
2018-06-15T06:04:24.173Z,77.21
2018-06-15T06:06:56.841Z,76.61
2018-06-15T06:09:23.758Z,79.62
2018-06-15T06:11:50.692Z,81.08
2018-06-15T06:14:17.622Z,83.16
2018-06-15T06:16:44.560Z,76.36
2018-06-15T06:19:11.488Z,74.75
2018-06-15T06:21:38.417Z,74.53
2018-06-15T06:24:05.357Z,73.26
2018-06-15T06:26:32.305Z,73.14
2018-06-15T06:28:59.241Z,73.81
2018-06-15T06:31:26.202Z,72.26
2018-06-15T06:33:53.437Z,70.04
2018-06-15T06:36:20.390Z,72.79
2018-06-15T06:38:47.315Z,70.84
2018-06-15T06:41:14.257Z,72.50
2018-06-15T06:43:41.165Z,72.76
2018-06-15T06:46:08.130Z,69.79
2018-06-15T06:48:35.076Z,71.03
2018-06-15T06:51:02.007Z,68.79
2018-06-15T06:53:28.969Z,65.62
2018-06-15T06:55:55.924Z,68.60
2018-06-15T06:58:22.834Z,69.92
2018-06-15T07:00:49.792Z,69.60
2018-06-15T07:03:16.713Z,67.56
2018-06-15T07:05:43.641Z,66.23
2018-06-15T07:08:10.553Z,66.08
2018-06-15T07:10:37.472Z,58.62
2018-06-15T07:13:04.393Z,57.83
2018-06-15T07:15:31.318Z,59.79
2018-06-15T07:17:58.297Z,60.60
2018-06-15T07:20:25.216Z,58.59
2018-06-15T07:22:52.224Z,57.91
2018-06-15T07:25:19.177Z,58.66
2018-06-15T07:27:46.201Z,57.88
2018-06-15T07:30:13.125Z,55.72
2018-06-15T07:32:40.069Z,54.22
2018-06-15T07:35:06.980Z,56.90
2018-06-15T07:37:33.982Z,54.52
2018-06-15T07:40:00.888Z,56.53
2018-06-15T07:42:27.801Z,56.14
2018-06-15T07:44:54.709Z,55.13
2018-06-15T07:47:21.636Z,55.54
2018-06-15T07:49:48.538Z,53.81
2018-06-15T07:52:15.473Z,52.22
2018-06-15T07:54:43.509Z,51.50
2018-06-15T07:57:10.466Z,50.86
2018-06-15T07:59:37.398Z,49.47
2018-06-15T08:02:04.357Z,49.41
2018-06-15T08:04:31.270Z,50.66
2018-06-15T08:06:58.204Z,49.74
2018-06-15T08:09:25.476Z,48.73
2018-06-15T08:11:52.392Z,47.88
2018-06-15T08:14:19.333Z,48.15
2018-06-15T08:16:46.250Z,50.69
2018-06-15T08:19:13.165Z,48.93
2018-06-15T08:21:40.100Z,47.96
2018-06-15T08:24:07.358Z,49.46
2018-06-15T08:26:34.302Z,45.60
2018-06-15T08:29:01.222Z,46.77
2018-06-15T08:31:28.154Z,48.32
2018-06-15T08:33:55.172Z,49.28
2018-06-15T08:36:22.084Z,49.78
2018-06-15T08:38:49.035Z,47.60
2018-06-15T08:41:15.964Z,46.08
2018-06-15T08:43:43.343Z,46.29
2018-06-15T08:46:10.326Z,46.08
2018-06-15T08:48:37.256Z,46.74
2018-06-15T08:51:04.178Z,46.28
2018-06-15T08:53:31.162Z,46.36
2018-06-15T08:55:58.078Z,45.44
2018-06-15T08:58:25.009Z,44.69
2018-06-15T09:00:51.949Z,43.70
2018-06-15T09:03:18.886Z,43.33
2018-06-15T09:05:45.812Z,45.16
2018-06-15T09:08:12.740Z,43.80
2018-06-15T09:10:39.673Z,44.16
2018-06-15T09:13:06.723Z,45.69
2018-06-15T09:15:33.632Z,45.81
2018-06-15T09:18:00.557Z,45.74
2018-06-15T09:20:27.514Z,45.84
2018-06-15T09:22:54.448Z,43.67
2018-06-15T09:25:21.389Z,44.53
2018-06-15T09:27:48.328Z,43.86
2018-06-15T09:30:15.277Z,42.81
2018-06-15T09:32:42.247Z,43.34
2018-06-15T09:35:09.166Z,44.57
2018-06-15T09:37:36.177Z,42.79
2018-06-15T09:40:03.194Z,43.16
2018-06-15T09:42:30.577Z,40.35
2018-06-15T09:44:57.513Z,42.26
2018-06-15T09:47:24.565Z,41.69
2018-06-15T09:49:51.503Z,43.10
2018-06-15T09:52:18.437Z,41.61
2018-06-15T09:54:45.376Z,41.25
2018-06-15T09:57:12.307Z,39.34
2018-06-15T09:59:39.234Z,39.90
2018-06-15T10:02:06.169Z,40.65
2018-06-15T10:04:33.097Z,38.81
2018-06-15T10:07:00.030Z,40.39
2018-06-15T10:09:26.969Z,39.70
2018-06-15T10:11:53.890Z,41.00
2018-06-15T10:14:20.825Z,40.58
2018-06-15T10:16:47.746Z,40.77
2018-06-15T10:19:14.673Z,41.50
2018-06-15T10:21:41.597Z,38.53
2018-06-15T10:24:08.520Z,41.43
2018-06-15T10:26:35.449Z,40.18
2018-06-15T10:29:02.392Z,39.72
2018-06-15T10:31:29.392Z,38.21
2018-06-15T10:33:56.326Z,38.50
2018-06-15T10:36:23.249Z,41.63
2018-06-15T10:38:50.201Z,42.73
2018-06-15T10:41:17.115Z,42.86
2018-06-15T10:43:44.076Z,42.95
2018-06-15T10:46:10.993Z,42.44
2018-06-15T10:48:37.920Z,40.54
2018-06-15T10:51:04.865Z,38.32
2018-06-15T10:53:31.786Z,38.68
2018-06-15T10:55:58.725Z,39.25
2018-06-15T10:58:25.664Z,37.04
2018-06-15T11:00:52.582Z,36.64
2018-06-15T11:03:19.505Z,37.30
2018-06-15T11:05:46.455Z,36.59
2018-06-15T11:08:13.423Z,35.69
2018-06-15T11:10:40.313Z,35.34
2018-06-15T11:13:07.246Z,36.55
2018-06-15T11:15:34.177Z,37.86
2018-06-15T11:18:01.097Z,37.41
2018-06-15T11:20:28.024Z,34.79
2018-06-15T11:22:54.961Z,33.38
2018-06-15T11:25:21.874Z,35.59
2018-06-15T11:27:48.799Z,37.93
2018-06-15T11:30:15.734Z,37.29
2018-06-15T11:32:42.657Z,37.93
2018-06-15T11:35:09.569Z,38.36
2018-06-15T11:37:36.452Z,40.30
2018-06-15T11:40:03.373Z,37.06
2018-06-15T11:42:30.279Z,35.28
2018-06-15T11:44:57.202Z,34.50
2018-06-15T11:47:24.096Z,34.00
2018-06-15T11:49:51.009Z,34.25
2018-06-15T11:52:17.916Z,33.66
2018-06-15T11:54:44.833Z,33.23
2018-06-15T11:57:11.732Z,35.00
2018-06-15T11:59:38.635Z,35.90
2018-06-15T12:02:05.586Z,36.99
2018-06-15T12:04:32.517Z,35.58
2018-06-15T12:06:59.425Z,35.79
2018-06-15T12:09:26.341Z,36.15
2018-06-15T12:11:53.242Z,35.06
2018-06-15T12:14:20.154Z,36.01
2018-06-15T12:16:47.037Z,35.70
2018-06-15T12:19:13.973Z,35.39
2018-06-15T12:21:40.871Z,34.72
2018-06-15T12:24:07.787Z,34.14
2018-06-15T12:26:34.718Z,34.74
2018-06-15T12:29:01.636Z,35.46
2018-06-15T12:31:28.583Z,35.81
2018-06-15T12:33:55.594Z,34.73
2018-06-15T12:36:22.539Z,35.34
2018-06-15T12:38:49.445Z,34.30
2018-06-15T12:41:16.381Z,34.71
2018-06-15T12:43:43.341Z,35.04
2018-06-15T12:46:10.247Z,35.78
2018-06-15T12:48:37.168Z,36.41
2018-06-15T12:51:04.080Z,36.13
2018-06-15T12:53:30.964Z,35.93
2018-06-15T12:55:57.893Z,36.99
2018-06-15T12:58:24.786Z,37.57
2018-06-15T13:00:51.710Z,37.95
2018-06-15T13:03:18.617Z,36.47
2018-06-15T13:05:45.549Z,37.41
2018-06-15T13:08:12.441Z,37.58
2018-06-15T13:10:39.357Z,36.95
2018-06-15T13:13:06.269Z,37.79
2018-06-15T13:15:33.178Z,36.94
2018-06-15T13:18:00.120Z,37.24
2018-06-15T13:20:27.052Z,38.05
2018-06-15T13:22:53.955Z,37.72
2018-06-15T13:25:20.912Z,37.13
2018-06-15T13:27:47.826Z,36.61
2018-06-15T13:30:14.740Z,36.38
2018-06-15T13:32:41.649Z,35.27
2018-06-15T13:35:08.580Z,36.17
2018-06-15T13:37:35.488Z,35.53
2018-06-15T13:40:02.429Z,36.88
2018-06-15T13:42:29.355Z,37.08
2018-06-15T13:44:56.314Z,36.13
2018-06-15T13:47:23.261Z,37.15
2018-06-15T13:49:50.268Z,36.99
2018-06-15T13:52:17.226Z,36.41
2018-06-15T13:54:44.718Z,34.77
2018-06-15T13:57:11.661Z,35.27
2018-06-15T13:59:38.586Z,34.62
2018-06-15T14:02:05.525Z,34.34
2018-06-15T14:04:32.448Z,34.68
2018-06-15T14:06:59.938Z,35.54
2018-06-15T14:09:26.989Z,37.22
2018-06-15T14:11:53.942Z,37.15
2018-06-15T14:14:20.995Z,36.37
2018-06-15T14:16:48.077Z,35.97
2018-06-15T14:19:15.073Z,36.59
2018-06-15T14:21:42.171Z,38.84
2018-06-15T14:24:09.124Z,37.82
2018-06-15T14:26:36.265Z,39.01
2018-06-15T14:29:03.157Z,40.10
2018-06-15T14:31:30.424Z,40.41
2018-06-15T14:33:57.343Z,39.19
2018-06-15T14:36:24.429Z,36.52
2018-06-15T14:38:51.345Z,36.96
2018-06-15T14:41:18.347Z,36.17
2018-06-15T14:43:45.310Z,36.38
2018-06-15T14:46:12.286Z,35.76
2018-06-15T14:48:39.308Z,35.28
2018-06-15T14:51:06.238Z,35.61
2018-06-15T14:53:33.134Z,36.28
2018-06-15T14:56:00.038Z,35.14
2018-06-15T14:58:27.257Z,35.63
2018-06-15T15:00:54.149Z,36.64
2018-06-15T15:03:21.076Z,36.30
2018-06-15T15:05:47.987Z,37.34
2018-06-15T15:08:14.906Z,36.74
2018-06-15T15:10:41.809Z,36.05
2018-06-15T15:13:08.729Z,35.08
2018-06-15T15:15:35.633Z,34.08
2018-06-15T15:18:03.120Z,36.20
2018-06-15T15:20:30.166Z,36.89
2018-06-15T15:22:57.157Z,37.32
2018-06-15T15:25:24.106Z,36.99
2018-06-15T15:27:51.049Z,36.81
2018-06-15T15:30:18.065Z,36.72
2018-06-15T15:32:45.109Z,37.63
2018-06-15T15:35:12.026Z,36.87
2018-06-15T15:37:39.028Z,38.37
2018-06-15T15:40:06.048Z,38.58
2018-06-15T15:42:32.945Z,38.59
2018-06-15T15:45:00.030Z,38.88
2018-06-15T15:47:26.936Z,37.19
2018-06-15T15:49:53.954Z,37.90
2018-06-15T15:52:20.976Z,37.87
2018-06-15T15:54:48.025Z,37.05
2018-06-15T15:57:14.932Z,38.08
2018-06-15T15:59:41.832Z,37.96
2018-06-15T16:02:08.728Z,37.79
2018-06-15T16:04:35.770Z,38.04
2018-06-15T16:07:02.696Z,38.02
2018-06-15T16:09:29.632Z,38.85
2018-06-15T16:11:56.530Z,38.19
2018-06-15T16:14:23.437Z,37.69
2018-06-15T16:16:50.327Z,37.48
2018-06-15T16:19:17.237Z,38.11
2018-06-15T16:21:44.128Z,37.31
2018-06-15T16:24:11.045Z,37.54
2018-06-15T16:26:37.954Z,36.88
2018-06-15T16:29:04.873Z,37.48
2018-06-15T16:31:32.066Z,38.02
2018-06-15T16:33:58.960Z,37.21
2018-06-15T16:36:25.977Z,37.54
2018-06-15T16:38:52.886Z,37.26
2018-06-15T16:41:19.774Z,37.24
2018-06-15T16:43:46.678Z,37.77
2018-06-15T16:46:13.566Z,37.77
2018-06-15T16:48:40.778Z,37.16
2018-06-15T16:51:07.769Z,38.19
2018-06-15T16:53:34.673Z,37.77
2018-06-15T16:56:01.557Z,38.49
2018-06-15T16:58:28.484Z,37.78
2018-06-15T17:00:55.792Z,37.21
2018-06-15T17:03:22.696Z,37.43
2018-06-15T17:05:49.597Z,37.52
2018-06-15T17:08:16.620Z,38.44
2018-06-15T17:10:43.525Z,38.38
2018-06-15T17:13:10.445Z,37.89
2018-06-15T17:15:37.329Z,37.69
2018-06-15T17:18:04.820Z,37.79
2018-06-15T17:20:31.721Z,37.41
2018-06-15T17:22:58.616Z,38.04
2018-06-15T17:25:25.513Z,38.36
2018-06-15T17:27:52.409Z,38.72
2018-06-15T17:30:19.300Z,37.92
2018-06-15T17:32:46.265Z,39.27
2018-06-15T17:35:13.121Z,38.15
2018-06-15T17:37:40.019Z,38.18
2018-06-15T17:40:06.957Z,38.55
2018-06-15T17:42:33.840Z,39.18
2018-06-15T17:45:00.754Z,38.19
2018-06-15T17:47:27.636Z,38.50
2018-06-15T17:49:54.537Z,38.43
2018-06-15T17:52:21.428Z,39.74
2018-06-15T17:54:48.336Z,41.54
2018-06-15T17:57:15.252Z,42.24
2018-06-15T17:59:42.194Z,42.63
2018-06-15T18:02:09.088Z,43.30
2018-06-15T18:04:35.985Z,42.79
2018-06-15T18:07:02.897Z,43.90
2018-06-15T18:09:29.805Z,43.91
2018-06-15T18:11:56.692Z,43.68
2018-06-15T18:14:23.584Z,44.11
2018-06-15T18:16:50.482Z,44.26
2018-06-15T18:19:17.385Z,44.47
2018-06-15T18:21:44.281Z,45.07
2018-06-15T18:24:11.188Z,47.07
2018-06-15T18:26:38.110Z,49.51
2018-06-15T18:29:05.366Z,49.67
2018-06-15T18:31:32.277Z,50.08
2018-06-15T18:33:59.213Z,50.23
2018-06-15T18:36:26.113Z,49.66
2018-06-15T18:38:53.036Z,49.47
2018-06-15T18:41:19.932Z,49.16
2018-06-15T18:43:46.852Z,48.73
2018-06-15T18:46:14.256Z,48.31
2018-06-15T18:48:41.201Z,49.37
2018-06-15T18:51:08.085Z,49.34
2018-06-15T18:53:35.013Z,49.67
2018-06-15T18:56:01.949Z,50.58
2018-06-15T18:58:28.872Z,50.80
2018-06-15T19:00:55.789Z,50.94
2018-06-15T19:03:22.724Z,51.61
2018-06-15T19:05:49.625Z,52.07
2018-06-15T19:08:16.515Z,52.38
2018-06-15T19:10:43.425Z,52.18
2018-06-15T19:13:10.328Z,52.38
2018-06-15T19:15:37.247Z,53.01
2018-06-15T19:18:04.156Z,52.99
2018-06-15T19:20:31.067Z,53.77
2018-06-15T19:22:57.960Z,54.23
2018-06-15T19:25:24.900Z,54.28
2018-06-15T19:27:51.841Z,54.60
2018-06-15T19:30:18.779Z,54.55
2018-06-15T19:32:45.687Z,55.26
2018-06-15T19:35:12.616Z,55.30
2018-06-15T19:37:39.527Z,55.46
2018-06-15T19:40:06.484Z,56.24
2018-06-15T19:42:33.396Z,56.58
2018-06-15T19:45:00.308Z,57.11
2018-06-15T19:47:27.219Z,57.49
2018-06-15T19:49:54.141Z,57.47
2018-06-15T19:52:21.044Z,58.25
2018-06-15T19:54:47.980Z,58.24
2018-06-15T19:57:14.897Z,58.68
2018-06-15T19:59:41.805Z,59.55
2018-06-15T20:02:08.704Z,59.57
2018-06-15T20:04:35.620Z,59.58
2018-06-15T20:07:02.524Z,59.56
2018-06-15T20:09:29.464Z,58.94
2018-06-15T20:11:56.364Z,59.54
2018-06-15T20:14:23.265Z,59.83
2018-06-15T20:16:50.189Z,60.64
2018-06-15T20:19:17.097Z,60.71
2018-06-15T20:21:44.005Z,60.64
2018-06-15T20:24:10.910Z,61.50
2018-06-15T20:26:38.608Z,62.33
2018-06-15T20:29:05.545Z,62.45
2018-06-15T20:31:32.519Z,62.92
2018-06-15T20:33:59.446Z,62.96
2018-06-15T20:36:26.465Z,62.66
2018-06-15T20:38:53.280Z,62.64
2018-06-15T20:41:20.188Z,62.58
2018-06-15T20:43:47.169Z,62.31
2018-06-15T20:46:14.112Z,62.84
2018-06-15T20:48:41.130Z,62.29
2018-06-15T20:51:08.148Z,63.01
2018-06-15T20:53:35.090Z,62.82
2018-06-15T20:56:02.069Z,63.21
2018-06-15T20:58:29.207Z,63.88
2018-06-15T21:00:56.365Z,64.06
2018-06-15T21:03:23.292Z,65.22
2018-06-15T21:05:50.237Z,65.63
2018-06-15T21:08:17.157Z,65.45
2018-06-15T21:10:44.061Z,66.11
2018-06-15T21:13:10.968Z,66.27
2018-06-15T21:15:37.892Z,66.59
2018-06-15T21:18:04.920Z,67.09
2018-06-15T21:20:31.864Z,67.48
2018-06-15T21:22:58.808Z,67.71
2018-06-15T21:25:25.785Z,67.66
2018-06-15T21:27:53.857Z,67.12
2018-06-15T21:30:20.764Z,67.37
2018-06-15T21:32:47.665Z,66.48
2018-06-15T21:35:14.560Z,66.17
2018-06-15T21:37:41.457Z,66.34
2018-06-15T21:40:08.445Z,65.68
2018-06-15T21:42:35.400Z,65.06
2018-06-15T21:45:02.261Z,65.33
2018-06-15T21:47:29.181Z,65.20
2018-06-15T21:49:56.068Z,67.14
2018-06-15T21:52:22.979Z,67.42
2018-06-15T21:54:49.869Z,67.31
2018-06-15T21:57:16.765Z,66.73
2018-06-15T21:59:43.657Z,66.34
2018-06-15T22:02:10.587Z,66.87
2018-06-15T22:04:37.485Z,67.15
2018-06-15T22:07:04.395Z,66.90
2018-06-15T22:09:31.319Z,66.72
2018-06-15T22:11:58.269Z,67.10
2018-06-15T22:14:25.159Z,66.80
2018-06-15T22:16:52.468Z,66.40
2018-06-15T22:19:21.673Z,66.18
2018-06-15T22:21:49.343Z,67.02
2018-06-15T22:24:16.260Z,66.92
2018-06-15T22:26:43.364Z,66.24
2018-06-15T22:29:10.276Z,66.21
2018-06-15T22:31:37.211Z,66.10
2018-06-15T22:34:04.171Z,65.80
2018-06-15T22:36:31.117Z,65.87
2018-06-15T22:38:58.030Z,66.16
2018-06-15T22:41:24.942Z,66.14
2018-06-15T22:43:51.870Z,65.33
2018-06-15T22:46:18.861Z,64.96
2018-06-15T22:48:45.801Z,64.90
2018-06-15T22:51:12.735Z,64.14
2018-06-15T22:53:39.701Z,64.25
2018-06-15T22:56:06.711Z,64.50
2018-06-15T22:58:33.759Z,64.22
2018-06-15T23:01:00.674Z,64.04
2018-06-15T23:03:27.657Z,64.66
2018-06-15T23:05:54.730Z,64.18
2018-06-15T23:08:21.669Z,64.23
2018-06-15T23:10:48.604Z,63.72
2018-06-15T23:13:15.572Z,63.98
2018-06-15T23:15:42.529Z,64.10
2018-06-15T23:18:09.466Z,64.18
2018-06-15T23:20:36.368Z,63.95
2018-06-15T23:23:03.382Z,64.30
2018-06-15T23:25:30.329Z,64.20
2018-06-15T23:27:57.282Z,64.00
2018-06-15T23:30:24.263Z,63.93
2018-06-15T23:32:51.213Z,64.45
2018-06-15T23:35:18.126Z,64.56
2018-06-15T23:37:45.097Z,64.29
2018-06-15T23:40:12.049Z,64.28
2018-06-15T23:42:38.977Z,64.28
2018-06-15T23:45:05.882Z,63.97
2018-06-15T23:47:32.808Z,63.52
2018-06-15T23:49:59.728Z,63.07
2018-06-15T23:52:26.643Z,63.04
2018-06-15T23:54:54.441Z,62.82
2018-06-15T23:57:21.365Z,62.93
2018-06-15T23:59:48.272Z,63.08
